createdAt,value
2022-09-20T00:04:00.010Z,100270.00
2022-09-20T00:10:02.159Z,100283.00
2022-09-20T00:16:13.764Z,100285.00
2022-09-20T00:22:15.793Z,100280.00
2022-09-20T00:28:17.921Z,100278.00
2022-09-20T00:34:38.891Z,100280.00
2022-09-20T00:40:42.861Z,100275.00
2022-09-20T00:46:46.002Z,100274.00
2022-09-20T00:52:50.599Z,100268.00
2022-09-20T00:59:08.237Z,100273.00
2022-09-20T01:05:11.337Z,100274.00
2022-09-20T01:11:13.407Z,100271.00
2022-09-20T01:17:16.319Z,100255.00
2022-09-20T01:23:21.404Z,100264.00
2022-09-20T01:29:34.138Z,100265.00
2022-09-20T01:35:37.058Z,100256.00
2022-09-20T01:41:46.105Z,100249.00
2022-09-20T01:48:09.520Z,100250.00
2022-09-20T01:54:34.762Z,100247.00
2022-09-20T02:01:10.796Z,100254.00
2022-09-20T02:07:28.596Z,100251.00
2022-09-20T02:13:33.682Z,100249.00
2022-09-20T02:19:51.216Z,100244.00
2022-09-20T02:26:05.576Z,100249.00
2022-09-20T02:32:25.437Z,100258.00
2022-09-20T02:38:45.863Z,100266.00
2022-09-20T02:45:06.652Z,100263.00
2022-09-20T02:51:25.619Z,100260.00
2022-09-20T02:57:51.015Z,100266.00
2022-09-20T03:04:05.815Z,100277.00
2022-09-20T03:10:08.042Z,100272.00
2022-09-20T03:16:23.099Z,100262.00
2022-09-20T03:22:33.885Z,100270.00
2022-09-20T03:28:57.572Z,100268.00
2022-09-20T03:35:14.604Z,100278.00
2022-09-20T03:41:23.559Z,100267.00
2022-09-20T03:47:58.036Z,100275.00
2022-09-20T03:54:14.936Z,100291.00
2022-09-20T04:00:21.515Z,100295.00
2022-09-20T04:06:42.037Z,100305.00
2022-09-20T04:12:56.451Z,100310.00
2022-09-20T04:19:20.063Z,100307.00
2022-09-20T04:25:30.219Z,100311.00
2022-09-20T04:31:52.016Z,100315.00
2022-09-20T04:37:56.265Z,100317.00
2022-09-20T04:44:22.219Z,100315.00
2022-09-20T04:51:02.851Z,100311.00
2022-09-20T04:57:54.895Z,100316.00
2022-09-20T05:04:37.362Z,100325.00
2022-09-20T05:11:04.630Z,100339.00
2022-09-20T05:17:36.435Z,100300.00
2022-09-20T05:24:01.627Z,100225.00
2022-09-20T05:30:04.979Z,100223.00
2022-09-20T05:36:32.400Z,100335.00
2022-09-20T05:42:47.543Z,100218.00
2022-09-20T05:48:57.655Z,100243.00
2022-09-20T05:55:05.428Z,100264.00
2022-09-20T06:01:26.957Z,100231.00
2022-09-20T06:07:47.635Z,100254.00
2022-09-20T06:14:03.926Z,100229.00
2022-09-20T06:20:11.922Z,100225.00
2022-09-20T06:26:24.053Z,100232.00
2022-09-20T06:32:27.862Z,100253.00
2022-09-20T06:39:03.373Z,100280.00
2022-09-20T06:45:05.858Z,100233.00
2022-09-20T06:51:12.681Z,100373.00
2022-09-20T06:57:18.402Z,100368.00
2022-09-20T07:03:20.617Z,100374.00
2022-09-20T07:09:22.873Z,100423.00
2022-09-20T07:15:25.247Z,100343.00
2022-09-20T07:21:27.430Z,100285.00
2022-09-20T07:27:30.008Z,100410.00
2022-09-20T07:33:32.165Z,100390.00
2022-09-20T07:39:34.241Z,100334.00
2022-09-20T07:45:38.868Z,100409.00
2022-09-20T07:51:41.024Z,100303.00
2022-09-20T07:57:43.292Z,100314.00
2022-09-20T08:03:46.461Z,100324.00
2022-09-20T08:09:48.583Z,100335.00
2022-09-20T08:15:50.686Z,100325.00
2022-09-20T08:21:54.368Z,100317.00
2022-09-20T08:27:56.614Z,100336.00
2022-09-20T08:33:59.820Z,100325.00
2022-09-20T08:40:02.559Z,100288.00
2022-09-20T08:46:07.220Z,100299.00
2022-09-20T08:52:18.196Z,100305.00
2022-09-20T08:58:20.290Z,100310.00
2022-09-20T09:04:24.863Z,100313.00
2022-09-20T09:10:31.028Z,100310.00
2022-09-20T09:16:36.537Z,100335.00
2022-09-20T09:22:39.951Z,100299.00
2022-09-20T09:28:42.064Z,100295.00
2022-09-20T09:34:44.384Z,100306.00
2022-09-20T09:40:51.664Z,100366.00
2022-09-20T09:46:54.925Z,100417.00
2022-09-20T09:53:21.484Z,100374.00
2022-09-20T09:59:45.706Z,100286.00
2022-09-20T10:06:18.976Z,100291.00
2022-09-20T10:12:21.538Z,100289.00
2022-09-20T10:18:23.987Z,100296.00
2022-09-20T10:24:48.621Z,100295.00
2022-09-20T10:31:05.178Z,100393.00
2022-09-20T10:37:27.777Z,100354.00
2022-09-20T10:43:35.745Z,100262.00
2022-09-20T10:50:01.283Z,100260.00
2022-09-20T10:56:29.540Z,100343.00
2022-09-20T11:02:34.320Z,100233.00
2022-09-20T11:08:38.677Z,100288.00
2022-09-20T11:14:56.054Z,100369.00
2022-09-20T11:21:11.520Z,100362.00
2022-09-20T11:27:21.063Z,100277.00
2022-09-20T11:33:29.919Z,100360.00
2022-09-20T11:39:39.546Z,100311.00
2022-09-20T11:45:44.902Z,100350.00
2022-09-20T11:51:48.996Z,100191.00
2022-09-20T11:58:17.079Z,100348.00
2022-09-20T12:04:32.279Z,100342.00
2022-09-20T12:10:39.504Z,100319.00
2022-09-20T12:16:44.689Z,100338.00
2022-09-20T12:22:56.552Z,100320.00
2022-09-20T12:29:01.451Z,100313.00
2022-09-20T12:35:44.955Z,100314.00
2022-09-20T12:42:01.805Z,100324.00
2022-09-20T12:48:03.958Z,100330.00
2022-09-20T12:54:09.231Z,100314.00
2022-09-20T13:00:41.094Z,100326.00
2022-09-20T13:06:44.008Z,100322.00
2022-09-20T13:12:50.437Z,100308.00
2022-09-20T13:19:05.884Z,100324.00
2022-09-20T13:25:14.506Z,100302.00
2022-09-20T13:31:28.405Z,100309.00
2022-09-20T13:37:31.496Z,100308.00
2022-09-20T13:43:41.745Z,100324.00
2022-09-20T13:49:44.277Z,100323.00
2022-09-20T13:55:46.724Z,100339.00
2022-09-20T14:01:51.896Z,100341.00
2022-09-20T14:07:54.679Z,100337.00
2022-09-20T14:13:59.431Z,100335.00
2022-09-20T14:20:02.217Z,100330.00
2022-09-20T14:26:16.977Z,100330.00
2022-09-20T14:32:19.243Z,100338.00
2022-09-20T14:38:26.861Z,100333.00
2022-09-20T14:44:34.110Z,100335.00
2022-09-20T14:50:37.265Z,100332.00
2022-09-20T14:56:49.570Z,100331.00
2022-09-20T15:02:52.246Z,100340.00
2022-09-20T15:08:54.387Z,100331.00
2022-09-20T15:14:56.387Z,100333.00
2022-09-20T15:20:58.597Z,100335.00
2022-09-20T15:27:00.841Z,100335.00
2022-09-20T15:33:03.314Z,100335.00
2022-09-20T15:39:05.618Z,100335.00
2022-09-20T15:45:12.327Z,100339.00
2022-09-20T15:51:15.589Z,100344.00
2022-09-20T15:57:17.701Z,100343.00
2022-09-20T16:03:19.961Z,100344.00
2022-09-20T16:09:22.106Z,100347.00
2022-09-20T16:15:24.395Z,100351.00
2022-09-20T16:21:26.721Z,100366.00
2022-09-20T16:27:28.755Z,100366.00
2022-09-20T16:33:30.702Z,100374.00
2022-09-20T16:39:32.928Z,100385.00
2022-09-20T16:45:37.866Z,100386.00
2022-09-20T16:51:41.676Z,100396.00
2022-09-20T16:57:43.702Z,100397.00
2022-09-20T17:03:47.496Z,100409.00
2022-09-20T17:09:49.579Z,100401.00
2022-09-20T17:16:01.714Z,100411.00
2022-09-20T17:22:03.887Z,100411.00
2022-09-20T17:28:06.203Z,100424.00
2022-09-20T17:34:11.420Z,100422.00
2022-09-20T17:40:13.904Z,100430.00
2022-09-20T17:46:21.908Z,100429.00
2022-09-20T17:52:24.162Z,100432.00
2022-09-20T17:58:27.024Z,100436.00
2022-09-20T18:04:28.963Z,100441.00
2022-09-20T18:10:31.035Z,100442.00
2022-09-20T18:16:34.209Z,100443.00
2022-09-20T18:22:36.488Z,100456.00
2022-09-20T18:28:38.570Z,100453.00
2022-09-20T18:34:40.685Z,100455.00
2022-09-20T18:40:44.083Z,100465.00
2022-09-20T18:46:46.775Z,100467.00
2022-09-20T18:52:51.542Z,100468.00
2022-09-20T18:58:56.654Z,100473.00
2022-09-20T19:05:08.698Z,100484.00
2022-09-20T19:11:26.481Z,100482.00
2022-09-20T19:17:46.510Z,100482.00
2022-09-20T19:24:13.296Z,100481.00
2022-09-20T19:30:16.452Z,100479.00
2022-09-20T19:36:19.080Z,100488.00
2022-09-20T19:43:00.313Z,100477.00
2022-09-20T19:49:16.133Z,100486.00
2022-09-20T19:55:18.433Z,100488.00
2022-09-20T20:01:25.016Z,100483.00
2022-09-20T20:08:04.652Z,100486.00
2022-09-20T20:14:20.659Z,100488.00
2022-09-20T20:20:47.909Z,100494.00
2022-09-20T20:26:50.081Z,100497.00
2022-09-20T20:32:58.575Z,100508.00
2022-09-20T20:39:02.771Z,100488.00
2022-09-20T20:45:06.235Z,100499.00
2022-09-20T20:51:17.402Z,100503.00
2022-09-20T20:57:19.659Z,100505.00
2022-09-20T21:03:21.692Z,100503.00
2022-09-20T21:09:23.678Z,100519.00
2022-09-20T21:15:25.695Z,100523.00
2022-09-20T21:21:30.363Z,100531.00
2022-09-20T21:27:34.526Z,100525.00
2022-09-20T21:33:39.270Z,100521.00
2022-09-20T21:39:41.336Z,100521.00
2022-09-20T21:45:46.895Z,100524.00
2022-09-20T21:51:52.188Z,100524.00
2022-09-20T21:57:54.200Z,100527.00
2022-09-20T22:04:00.434Z,100522.00
2022-09-20T22:10:02.792Z,100524.00
2022-09-20T22:16:11.074Z,100523.00
2022-09-20T22:22:13.204Z,100520.00
2022-09-20T22:28:15.200Z,100536.00
2022-09-20T22:34:20.057Z,100536.00
2022-09-20T22:40:22.401Z,100533.00
2022-09-20T22:46:26.521Z,100522.00
2022-09-20T22:52:28.927Z,100516.00
2022-09-20T22:58:38.786Z,100519.00
2022-09-20T23:04:41.163Z,100518.00
2022-09-20T23:10:43.420Z,100515.00
2022-09-20T23:16:46.292Z,100523.00
2022-09-20T23:22:48.628Z,100519.00
2022-09-20T23:28:57.128Z,100519.00
2022-09-20T23:34:59.671Z,100510.00
2022-09-20T23:41:06.493Z,100512.00
2022-09-20T23:47:08.786Z,100517.00
2022-09-20T23:53:10.996Z,100513.00
2022-09-20T23:59:13.351Z,100520.00
